Time;durP1;ratioP1;P1;durP2;ratioP2;P2;SDS_P1;SDS_P2;PMS_P1;PMS_P2;Temp;Humidity;BMP_temperature;BMP_pressure;BME280_temperature;BME280_humidity;BME280_pressure;Samples;Min_cycle;Max_cycle;Signal;HPM_P1;HPM_P2
2022/04/25 00:01:10;;;;;;;23.85;11.55;;;7.40;99.90;;;;;;5055399;28;20125;-75
2022/04/25 00:03:36;;;;;;;24.77;12.43;;;7.40;99.90;;;;;;5054686;28;20461;-75
2022/04/25 00:06:02;;;;;;;21.52;11.65;;;7.40;99.90;;;;;;5050900;28;20027;-74
2022/04/25 00:08:27;;;;;;;25.17;13.48;;;7.40;99.90;;;;;;5042085;28;20021;-74
2022/04/25 00:10:53;;;;;;;26.75;12.43;;;7.40;99.90;;;;;;5056825;28;20021;-75
2022/04/25 00:13:18;;;;;;;24.92;12.85;;;7.50;99.90;;;;;;5055005;28;20048;-74
2022/04/25 00:15:44;;;;;;;22.00;12.63;;;7.50;99.90;;;;;;5051355;28;20033;-75
2022/04/25 00:18:10;;;;;;;32.38;13.65;;;7.60;99.90;;;;;;5036897;28;20085;-75
2022/04/25 00:20:36;;;;;;;21.92;12.32;;;7.60;99.90;;;;;;5037458;28;20029;-75
2022/04/25 00:23:04;;;;;;;24.50;11.82;;;7.60;99.90;;;;;;5037311;28;20474;-75
2022/04/25 00:25:35;;;;;;;22.83;11.98;;;7.70;99.90;;;;;;5055206;28;20025;-75
2022/04/25 00:28:02;;;;;;;23.60;12.02;;;7.70;99.90;;;;;;5054584;28;20029;-74
2022/04/25 00:30:30;;;;;;;28.85;12.57;;;7.70;99.90;;;;;;5055233;28;20036;-74
2022/04/25 00:32:57;;;;;;;26.25;11.80;;;7.70;99.90;;;;;;5055558;28;20049;-74
2022/04/25 00:35:24;;;;;;;23.65;12.23;;;7.70;99.90;;;;;;5058167;28;20098;-74
2022/04/25 00:37:51;;;;;;;23.15;11.98;;;7.80;99.90;;;;;;5038986;28;20048;-74
2022/04/25 00:40:21;;;;;;;20.98;12.63;;;7.80;99.90;;;;;;5057910;28;20044;-74
2022/04/25 00:42:48;;;;;;;24.00;11.95;;;7.80;99.90;;;;;;5039528;28;20063;-74
2022/04/25 00:45:14;;;;;;;27.25;12.38;;;7.90;99.90;;;;;;5059658;28;20095;-74
2022/04/25 00:47:40;;;;;;;23.35;12.43;;;7.90;99.90;;;;;;5057994;28;20017;-74
2022/04/25 00:50:08;;;;;;;23.75;11.93;;;8.00;99.90;;;;;;5058187;28;20094;-74
2022/04/25 00:52:34;;;;;;;25.27;11.48;;;8.00;99.90;;;;;;5040254;28;20014;-74
2022/04/25 00:55:02;;;;;;;21.25;11.90;;;8.00;99.90;;;;;;5040449;28;20020;-74
2022/04/25 00:57:29;;;;;;;26.25;12.20;;;8.10;99.90;;;;;;5058862;28;20024;-74
2022/04/25 00:59:57;;;;;;;20.83;11.68;;;8.10;99.90;;;;;;5040460;28;20078;-73
2022/04/25 01:02:24;;;;;;;23.90;12.30;;;8.10;99.90;;;;;;5040770;28;20028;-73
2022/04/25 01:04:50;;;;;;;26.65;11.68;;;8.10;99.90;;;;;;5055353;28;20209;-73
2022/04/25 01:07:16;;;;;;;26.77;11.65;;;8.10;99.90;;;;;;5039995;28;20029;-73
2022/04/25 01:09:41;;;;;;;23.02;12.15;;;8.10;99.90;;;;;;5057370;28;20386;-73
2022/04/25 01:12:07;;;;;;;22.55;11.57;;;8.10;99.90;;;;;;5057394;28;20049;-74
2022/04/25 01:14:33;;;;;;;21.95;12.43;;;8.00;99.90;;;;;;5057584;28;20032;-74
2022/04/25 01:17:00;;;;;;;27.88;12.00;;;8.00;99.90;;;;;;5057421;28;20479;-73
2022/04/25 01:19:26;;;;;;;25.58;10.60;;;8.00;99.90;;;;;;5058182;28;20025;-74
2022/04/25 01:21:57;;;;;;;24.67;12.40;;;7.90;99.90;;;;;;5043850;28;20025;-73
2022/04/25 01:27:17;;;;;;;20.10;10.95;;;7.90;99.90;;;;;;5058130;28;20290;-75
2022/04/25 01:29:52;;;;;;;20.70;11.90;;;7.80;99.90;;;;;;5058589;28;20051;-75
2022/04/25 01:32:18;;;;;;;20.98;12.40;;;7.80;99.90;;;;;;5058189;28;20024;-75
2022/04/25 01:34:45;;;;;;;23.02;11.90;;;7.70;99.90;;;;;;5058305;28;20025;-74
2022/04/25 01:37:13;;;;;;;21.15;12.02;;;7.80;99.90;;;;;;5058077;28;20029;-73
2022/04/25 01:39:41;;;;;;;19.73;11.00;;;7.80;99.90;;;;;;5058292;28;20028;-75
2022/04/25 01:42:07;;;;;;;24.80;11.00;;;7.80;99.90;;;;;;5040677;28;20228;-75
2022/04/25 01:44:34;;;;;;;23.73;11.27;;;7.90;99.90;;;;;;5057716;28;20021;-75
2022/04/25 01:47:01;;;;;;;21.20;10.88;;;7.90;99.90;;;;;;5058200;28;20083;-75
2022/04/25 01:49:27;;;;;;;19.77;11.55;;;7.90;99.90;;;;;;5040749;28;20036;-75
2022/04/25 01:51:53;;;;;;;23.55;10.93;;;7.90;99.90;;;;;;5059453;28;20028;-75
2022/04/25 01:54:26;;;;;;;21.45;10.10;;;7.90;99.90;;;;;;5059022;28;20021;-75
2022/04/25 01:56:55;;;;;;;20.05;11.00;;;7.90;99.90;;;;;;5059342;28;20028;-74
2022/04/25 01:59:22;;;;;;;19.50;10.52;;;7.90;99.90;;;;;;5040006;28;20032;-75
2022/04/25 02:01:48;;;;;;;25.98;11.38;;;7.90;99.90;;;;;;5057352;28;20067;-75
2022/04/25 02:04:14;;;;;;;19.75;11.30;;;8.00;99.90;;;;;;5040720;28;20029;-74
2022/04/25 02:06:40;;;;;;;24.05;10.60;;;7.90;99.90;;;;;;5058972;28;20395;-75
2022/04/25 02:09:06;;;;;;;19.83;10.27;;;8.00;99.90;;;;;;5058030;28;20056;-75
2022/04/25 02:11:31;;;;;;;18.23;10.85;;;7.90;99.90;;;;;;5058299;28;20056;-75
2022/04/25 02:13:57;;;;;;;20.55;11.27;;;7.90;99.90;;;;;;5058289;28;20081;-75
2022/04/25 02:16:24;;;;;;;19.15;10.95;;;7.90;99.90;;;;;;5039919;28;20111;-75
2022/04/25 02:18:52;;;;;;;18.33;10.50;;;7.90;99.90;;;;;;5057747;28;20025;-75
2022/04/25 02:21:18;;;;;;;17.73;11.23;;;7.90;99.90;;;;;;5056836;28;20100;-75
2022/04/25 02:23:44;;;;;;;19.52;10.02;;;7.90;99.90;;;;;;5058199;28;20430;-75
2022/04/25 02:26:10;;;;;;;16.30;10.98;;;7.90;99.90;;;;;;5040470;28;20029;-75
2022/04/25 02:28:37;;;;;;;19.83;11.45;;;7.90;99.90;;;;;;5040159;28;20394;-74
2022/04/25 02:31:05;;;;;;;19.80;10.60;;;8.00;99.90;;;;;;5058889;28;20025;-74
2022/04/25 02:33:32;;;;;;;20.65;10.23;;;7.90;99.90;;;;;;5064753;28;20044;-73
2022/04/25 02:36:00;;;;;;;22.98;11.00;;;8.00;99.90;;;;;;5045150;28;20021;-74
2022/04/25 02:38:26;;;;;;;20.77;10.38;;;7.90;99.90;;;;;;5042706;28;20486;-74
2022/04/25 02:41:04;;;;;;;17.88;10.63;;;7.90;99.90;;;;;;5040307;28;20120;-75
2022/04/25 02:43:32;;;;;;;20.70;11.05;;;7.90;99.90;;;;;;5057393;28;20037;-75
2022/04/25 02:45:58;;;;;;;19.90;10.98;;;7.90;99.90;;;;;;5057375;28;20029;-74
2022/04/25 02:48:24;;;;;;;16.88;11.05;;;7.90;99.90;;;;;;5039192;28;20025;-74
2022/04/25 02:50:49;;;;;;;25.50;12.50;;;7.90;99.90;;;;;;5038505;28;20069;-74
2022/04/25 02:53:15;;;;;;;19.17;10.98;;;7.80;99.90;;;;;;5057114;28;20024;-74
2022/04/25 02:55:41;;;;;;;17.90;10.55;;;7.80;99.90;;;;;;5057259;28;20025;-73
2022/04/25 02:58:08;;;;;;;22.45;10.85;;;7.90;99.90;;;;;;5057355;28;20074;-74
2022/04/25 03:00:34;;;;;;;24.45;11.60;;;8.00;99.90;;;;;;5056842;28;20024;-73
2022/04/25 03:03:00;;;;;;;16.33;10.68;;;7.90;99.90;;;;;;5056473;28;20613;-73
2022/04/25 03:05:25;;;;;;;20.15;11.40;;;8.00;99.90;;;;;;5038930;28;20029;-74
2022/04/25 03:07:51;;;;;;;22.98;11.05;;;7.90;99.90;;;;;;5057052;28;20029;-74
2022/04/25 03:10:16;;;;;;;26.80;11.10;;;7.90;99.90;;;;;;5039460;28;20025;-74
2022/04/25 03:12:42;;;;;;;20.27;10.35;;;7.80;99.90;;;;;;5039915;28;20410;-73
2022/04/25 03:15:08;;;;;;;20.60;10.70;;;7.90;99.90;;;;;;5057880;28;20025;-74
2022/04/25 03:17:33;;;;;;;17.67;10.55;;;7.80;99.90;;;;;;5057175;28;20085;-74
2022/04/25 03:19:59;;;;;;;20.30;10.50;;;7.80;99.90;;;;;;5057528;28;20032;-74
2022/04/25 03:22:25;;;;;;;17.00;10.05;;;7.80;99.90;;;;;;5058084;28;20029;-74
2022/04/25 03:24:51;;;;;;;19.02;10.15;;;7.80;99.90;;;;;;5040634;28;20445;-73
2022/04/25 03:27:16;;;;;;;23.30;10.27;;;7.70;99.90;;;;;;5043246;28;20028;-73
2022/04/25 03:29:41;;;;;;;17.05;10.65;;;7.80;99.90;;;;;;5041997;28;20075;-74
2022/04/25 03:32:07;;;;;;;19.02;10.13;;;7.80;99.90;;;;;;5061061;28;20077;-74
2022/04/25 03:34:36;;;;;;;18.38;10.13;;;7.70;99.90;;;;;;5060951;28;20021;-74
2022/04/25 03:37:02;;;;;;;14.05;9.48;;;7.80;99.90;;;;;;5043870;28;20028;-74
2022/04/25 03:39:29;;;;;;;16.63;10.18;;;7.70;99.90;;;;;;5062442;28;20037;-74
2022/04/25 03:41:55;;;;;;;17.63;9.73;;;7.70;99.90;;;;;;5064190;28;20036;-74
2022/04/25 03:44:20;;;;;;;21.15;10.27;;;7.70;99.90;;;;;;5064744;28;20451;-74
2022/04/25 03:46:46;;;;;;;16.30;10.10;;;7.60;99.90;;;;;;5051444;28;20025;-73
2022/04/25 03:49:13;;;;;;;18.17;9.43;;;7.70;99.90;;;;;;5048686;28;20029;-74
2022/04/25 03:51:39;;;;;;;18.60;9.98;;;7.70;99.90;;;;;;5065870;28;20031;-74
2022/04/25 03:54:05;;;;;;;18.95;9.73;;;7.60;99.90;;;;;;5067082;28;20025;-75
2022/04/25 03:59:15;;;;;;;20.23;10.35;;;7.60;99.90;;;;;;5060492;28;20056;-74
2022/04/25 04:01:41;;;;;;;15.85;10.13;;;7.60;99.90;;;;;;5038502;28;20402;-74
2022/04/25 04:04:06;;;;;;;20.92;11.73;;;7.60;99.90;;;;;;5057193;28;20017;-74
2022/04/25 04:06:32;;;;;;;17.20;11.38;;;7.60;99.90;;;;;;5040565;28;20059;-74
2022/04/25 04:08:59;;;;;;;24.13;11.73;;;7.60;99.90;;;;;;5042845;28;20398;-74
2022/04/25 04:11:46;;;;;;;25.77;12.25;;;7.60;99.90;;;;;;5045365;28;20462;-74
2022/04/25 04:14:10;;;;;;;19.35;12.23;;;7.60;99.90;;;;;;5070813;28;20248;-74
2022/04/25 04:16:36;;;;;;;22.40;12.00;;;7.60;99.90;;;;;;5042994;28;20071;-74
2022/04/25 04:19:01;;;;;;;19.83;12.77;;;7.60;99.90;;;;;;5041543;28;20155;-74
2022/04/25 04:21:27;;;;;;;21.83;13.50;;;7.60;99.90;;;;;;5041610;28;20048;-74
2022/04/25 04:23:53;;;;;;;25.13;14.07;;;7.70;99.90;;;;;;5059449;28;20021;-74
2022/04/25 04:26:18;;;;;;;29.58;14.63;;;7.70;99.90;;;;;;5041987;28;20071;-74
2022/04/25 04:28:44;;;;;;;28.05;14.98;;;7.70;99.90;;;;;;5059292;28;20414;-74
2022/04/25 04:31:09;;;;;;;28.63;16.20;;;7.70;99.90;;;;;;5059738;28;20091;-74
2022/04/25 04:33:35;;;;;;;27.77;16.23;;;7.60;99.90;;;;;;5060422;28;20447;-74
2022/04/25 04:36:19;;;;;;;25.50;15.40;;;7.60;99.90;;;;;;5060082;28;20044;-74
2022/04/25 04:38:45;;;;;;;37.63;16.48;;;7.70;99.90;;;;;;5060753;28;20059;-73
2022/04/25 04:41:11;;;;;;;28.35;17.90;;;7.70;99.90;;;;;;5042318;28;20177;-74
2022/04/25 04:43:37;;;;;;;32.15;18.08;;;7.60;99.90;;;;;;5061144;28;20031;-74
2022/04/25 04:46:03;;;;;;;31.50;16.83;;;7.60;99.90;;;;;;5061480;28;20049;-74
2022/04/25 04:48:28;;;;;;;29.17;16.35;;;7.60;99.90;;;;;;5063287;22;20049;-51
2022/04/25 04:50:58;;;;;;;27.55;16.55;;;7.50;99.90;;;;;;5056472;28;20088;-51
2022/04/25 04:53:23;;;;;;;30.20;16.80;;;7.50;99.90;;;;;;5056145;28;20551;-50
2022/04/25 04:55:51;;;;;;;31.13;17.60;;;7.50;99.90;;;;;;5056290;28;20061;-51
2022/04/25 04:58:18;;;;;;;25.80;16.95;;;7.50;99.90;;;;;;5037943;28;20021;-51
2022/04/25 05:00:44;;;;;;;31.98;16.13;;;7.50;99.90;;;;;;5055900;28;20033;-51
2022/04/25 05:03:13;;;;;;;28.85;16.33;;;7.50;99.90;;;;;;5056123;28;20033;-49
2022/04/25 05:05:38;;;;;;;29.02;16.08;;;7.40;99.90;;;;;;5056129;28;20021;-50
2022/04/25 05:08:04;;;;;;;32.92;15.25;;;7.50;99.90;;;;;;5056528;28;20086;-49
2022/04/25 05:10:29;;;;;;;27.83;15.70;;;7.40;99.90;;;;;;5038021;28;20025;-51
2022/04/25 05:12:55;;;;;;;29.30;15.85;;;7.60;99.90;;;;;;5056049;28;20021;-49
2022/04/25 05:15:21;;;;;;;28.63;15.27;;;7.60;99.90;;;;;;5038125;28;20397;-51
2022/04/25 05:17:53;;;;;;;31.33;15.68;;;7.70;99.90;;;;;;5055782;28;20102;-50
2022/04/25 05:20:21;;;;;;;27.52;15.82;;;7.90;99.90;;;;;;5054534;28;20025;-48
2022/04/25 05:22:48;;;;;;;25.35;14.23;;;8.00;99.90;;;;;;5056145;28;20021;-54
2022/04/25 05:25:19;;;;;;;21.40;13.98;;;8.10;99.90;;;;;;5055896;28;20370;-49
2022/04/25 05:27:47;;;;;;;24.42;14.45;;;8.20;99.90;;;;;;5055647;28;20029;-50
2022/04/25 05:30:14;;;;;;;24.00;14.10;;;8.30;99.90;;;;;;5055610;28;20040;-52
2022/04/25 05:32:45;;;;;;;30.10;15.20;;;8.20;99.90;;;;;;5055483;28;20076;-48
2022/04/25 05:35:11;;;;;;;22.33;12.70;;;8.20;99.90;;;;;;5055394;28;20482;-49
2022/04/25 05:37:38;;;;;;;21.90;13.73;;;8.20;99.90;;;;;;5037771;28;20037;-53
2022/04/25 05:40:04;;;;;;;30.23;14.70;;;8.10;99.90;;;;;;5055620;28;20478;-51
2022/04/25 05:42:30;;;;;;;24.50;12.80;;;8.10;99.90;;;;;;5055816;28;20584;-52
2022/04/25 05:44:56;;;;;;;20.88;12.43;;;8.10;99.90;;;;;;5055835;28;20029;-52
2022/04/25 05:47:21;;;;;;;21.35;13.13;;;8.10;99.90;;;;;;5037736;28;20028;-55
2022/04/25 05:52:31;;;;;;;22.35;13.35;;;8.10;99.90;;;;;;5055220;28;20405;-55
2022/04/25 05:54:56;;;;;;;26.52;13.57;;;8.00;99.90;;;;;;5055155;28;20025;-51
2022/04/25 05:57:22;;;;;;;23.58;12.45;;;7.90;99.90;;;;;;5055613;28;20043;-51
2022/04/25 05:59:48;;;;;;;18.67;12.35;;;8.00;99.90;;;;;;5054667;28;20032;-50
2022/04/25 06:02:17;;;;;;;23.52;13.63;;;7.90;99.90;;;;;;5054952;28;20056;-50
2022/04/25 06:04:42;;;;;;;25.05;12.73;;;7.90;99.90;;;;;;5054544;28;20021;-51
2022/04/25 06:07:08;;;;;;;19.80;12.50;;;7.90;99.90;;;;;;5054547;28;20052;-52
2022/04/25 06:09:34;;;;;;;25.23;12.88;;;7.80;99.90;;;;;;5054552;28;20040;-54
2022/04/25 06:12:02;;;;;;;26.40;12.18;;;7.80;99.90;;;;;;5054816;28;20042;-53
2022/04/25 06:14:31;;;;;;;21.13;12.95;;;7.80;99.90;;;;;;5054646;28;20036;-50
2022/04/25 06:16:59;;;;;;;24.58;13.10;;;7.80;99.90;;;;;;5054262;28;20025;-50
2022/04/25 06:19:25;;;;;;;29.95;13.48;;;7.90;99.90;;;;;;5054543;28;20405;-50
2022/04/25 06:21:50;;;;;;;20.33;12.07;;;7.90;99.90;;;;;;5054217;28;20108;-52
2022/04/25 06:24:17;;;;;;;18.65;12.18;;;7.90;99.90;;;;;;5054219;28;20389;-52
2022/04/25 06:26:42;;;;;;;23.65;13.02;;;7.90;99.90;;;;;;5054523;28;20021;-50
2022/04/25 06:29:08;;;;;;;19.92;12.32;;;7.90;99.90;;;;;;5054188;28;20032;-51
2022/04/25 06:31:34;;;;;;;27.50;13.43;;;7.90;99.90;;;;;;5053628;28;20498;-52
2022/04/25 06:34:00;;;;;;;24.73;13.35;;;7.90;99.90;;;;;;5054017;28;20103;-50
2022/04/25 06:36:25;;;;;;;19.63;12.05;;;7.90;99.90;;;;;;5036132;28;20080;-50
2022/04/25 06:38:51;;;;;;;26.08;12.27;;;8.00;99.90;;;;;;5053992;28;20163;-49
2022/04/25 06:41:17;;;;;;;23.23;13.63;;;8.00;99.90;;;;;;5036129;28;20021;-49
2022/04/25 06:43:43;;;;;;;24.63;12.88;;;8.00;99.90;;;;;;5054626;28;20098;-48
2022/04/25 06:46:09;;;;;;;26.30;12.77;;;8.00;99.90;;;;;;5054695;28;20043;-52
2022/04/25 06:48:35;;;;;;;23.50;12.45;;;7.90;99.90;;;;;;5054904;28;20119;-49
2022/04/25 06:51:01;;;;;;;27.38;12.18;;;7.90;99.90;;;;;;5054837;28;20037;-52
2022/04/25 06:53:27;;;;;;;22.30;12.32;;;7.90;99.90;;;;;;5053884;28;20035;-50
2022/04/25 06:55:53;;;;;;;30.17;12.90;;;7.90;99.90;;;;;;5053282;28;20021;-53
2022/04/25 06:58:18;;;;;;;22.52;13.18;;;7.90;99.90;;;;;;5053286;28;20067;-52
2022/04/25 07:00:45;;;;;;;30.15;13.60;;;7.90;99.90;;;;;;5053220;28;20151;-50
2022/04/25 07:03:10;;;;;;;32.92;15.48;;;7.90;99.90;;;;;;5035949;28;20025;-53
2022/04/25 07:05:36;;;;;;;24.73;14.57;;;7.90;99.90;;;;;;5054325;28;20025;-54
2022/04/25 07:08:03;;;;;;;24.58;14.63;;;7.80;99.90;;;;;;5051158;28;20361;-51
2022/04/25 07:10:29;;;;;;;25.52;14.15;;;7.80;99.90;;;;;;5045106;28;20109;-52
2022/04/25 07:12:56;;;;;;;29.50;15.38;;;7.80;99.90;;;;;;5035244;28;20494;-52
2022/04/25 07:15:22;;;;;;;25.33;14.43;;;7.80;99.90;;;;;;5033683;28;20037;-54
2022/04/25 07:17:50;;;;;;;28.08;14.48;;;7.80;99.90;;;;;;5033642;28;20033;-51
2022/04/25 07:20:16;;;;;;;22.50;12.20;;;7.90;99.90;;;;;;5033269;28;20022;-54
2022/04/25 07:30:54;;;;;;;30.90;12.55;;;8.00;99.90;;;;;;5052718;28;20079;-53
2022/04/25 07:33:19;;;;;;;25.25;11.27;;;8.10;99.90;;;;;;5052897;28;20025;-54
2022/04/25 07:35:45;;;;;;;22.83;10.05;;;8.10;99.90;;;;;;5050317;28;20056;-53
2022/04/25 07:38:11;;;;;;;20.90;10.27;;;8.10;99.90;;;;;;5041764;28;20021;-51
2022/04/25 07:40:36;;;;;;;19.85;10.38;;;8.00;99.90;;;;;;5033470;28;20018;-55
2022/04/25 07:43:03;;;;;;;19.27;9.68;;;7.90;99.90;;;;;;5030683;28;20025;-52
2022/04/25 07:45:29;;;;;;;15.05;10.00;;;8.00;99.90;;;;;;5032549;28;20091;-52
2022/04/25 07:47:54;;;;;;;21.55;9.80;;;8.10;99.90;;;;;;5032862;28;20509;-51
2022/04/25 07:50:23;;;;;;;16.48;10.30;;;8.10;99.90;;;;;;5032929;28;20100;-55
2022/04/25 07:52:52;;;;;;;14.88;9.70;;;8.20;99.90;;;;;;5015962;28;20032;-53
2022/04/25 07:55:18;;;;;;;20.30;9.98;;;8.30;99.90;;;;;;5033051;28;20022;-48
2022/04/25 07:57:45;;;;;;;15.68;10.15;;;8.20;99.90;;;;;;5032984;28;20029;-49
2022/04/25 08:00:11;;;;;;;19.48;9.75;;;8.30;99.90;;;;;;5034916;28;20135;-50
2022/04/25 08:02:36;;;;;;;17.50;10.60;;;8.30;99.90;;;;;;5043735;28;20041;-51
2022/04/25 08:05:02;;;;;;;16.77;8.68;;;8.30;99.90;;;;;;5032529;28;20490;-53
2022/04/25 08:07:29;;;;;;;17.80;9.23;;;8.40;99.90;;;;;;5033044;28;20185;-52
2022/04/25 08:09:55;;;;;;;22.05;9.10;;;8.40;99.90;;;;;;5033265;28;20025;-50
2022/04/25 08:18:01;;;;;;;16.90;9.50;;;8.80;99.90;;;;;;5053062;28;20115;-54
2022/04/25 08:20:34;;;;;;;17.73;9.43;;;8.90;99.90;;;;;;5034993;28;20155;-53
2022/04/25 08:23:00;;;;;;;20.98;9.57;;;8.90;99.90;;;;;;5041487;28;20029;-52
2022/04/25 08:25:27;;;;;;;25.15;10.15;;;8.80;99.90;;;;;;5038430;28;20386;-52
2022/04/25 08:27:53;;;;;;;24.08;10.32;;;8.80;99.90;;;;;;5052953;28;20035;-54
2022/04/25 08:30:19;;;;;;;21.65;10.43;;;8.80;99.90;;;;;;5034753;28;20115;-53
2022/04/25 08:32:46;;;;;;;15.00;9.13;;;8.80;99.90;;;;;;5052613;28;20028;-49
2022/04/25 08:35:12;;;;;;;23.83;10.25;;;8.70;99.90;;;;;;5052719;28;20029;-49
2022/04/25 08:37:38;;;;;;;18.80;9.68;;;8.70;99.90;;;;;;5051806;28;20025;-54
2022/04/25 08:40:05;;;;;;;17.02;9.32;;;8.70;99.90;;;;;;5050957;28;20390;-57
2022/04/25 08:42:31;;;;;;;20.52;9.45;;;8.80;99.90;;;;;;5051011;28;20018;-51
2022/04/25 08:44:58;;;;;;;18.00;8.95;;;8.70;99.90;;;;;;5050782;28;20021;-55
2022/04/25 08:47:28;;;;;;;15.60;9.55;;;8.70;99.90;;;;;;5048884;28;20068;-52
2022/04/25 08:49:57;;;;;;;20.45;9.57;;;8.70;99.90;;;;;;5051082;28;20017;-49
2022/04/25 08:52:23;;;;;;;18.00;8.82;;;8.70;99.90;;;;;;5050065;28;20033;-54
2022/04/25 08:54:49;;;;;;;26.52;10.02;;;8.80;99.90;;;;;;5053127;28;20032;-55
2022/04/25 08:57:17;;;;;;;15.95;9.38;;;8.80;99.90;;;;;;5055556;28;20467;-51
2022/04/25 08:59:44;;;;;;;16.80;8.50;;;8.80;99.90;;;;;;5055411;28;20029;-54
2022/04/25 09:02:12;;;;;;;16.70;9.02;;;8.90;99.90;;;;;;5053626;28;20025;-49
2022/04/25 09:04:37;;;;;;;16.67;8.73;;;9.00;99.90;;;;;;5054490;28;20021;-55
2022/04/25 09:07:03;;;;;;;15.70;8.85;;;9.10;99.90;;;;;;5054033;28;20033;-55
2022/04/25 09:09:28;;;;;;;19.30;9.55;;;9.20;99.90;;;;;;5053891;28;20087;-53
2022/04/25 09:12:10;;;;;;;15.52;8.55;;;9.50;99.90;;;;;;5054231;28;20029;-51
2022/04/25 09:14:37;;;;;;;14.43;8.90;;;9.70;99.90;;;;;;5053797;28;20052;-55
2022/04/25 09:17:04;;;;;;;15.15;8.48;;;9.60;99.90;;;;;;5054400;28;20441;-51
2022/04/25 09:19:34;;;;;;;16.15;8.95;;;9.70;99.90;;;;;;5054247;28;20033;-52
2022/04/25 09:21:59;;;;;;;19.80;9.25;;;9.80;99.90;;;;;;5054441;28;20028;-52
2022/04/25 09:24:27;;;;;;;18.13;8.13;;;10.00;99.90;;;;;;5053923;28;20378;-51
2022/04/25 09:27:06;;;;;;;17.23;8.98;;;10.10;99.90;;;;;;5053979;28;20028;-50
2022/04/25 09:29:31;;;;;;;15.98;9.98;;;10.20;99.90;;;;;;5052687;28;20442;-50
2022/04/25 09:31:57;;;;;;;15.80;8.65;;;10.30;99.90;;;;;;5053802;28;20040;-51
2022/04/25 09:37:07;;;;;;;16.67;7.78;;;10.10;99.90;;;;;;5035036;28;20049;-52
2022/04/25 09:39:33;;;;;;;13.60;9.10;;;10.10;99.90;;;;;;5041166;28;20479;-54
2022/04/25 09:42:00;;;;;;;18.58;9.27;;;10.20;99.90;;;;;;5049818;28;20033;-50
2022/04/25 09:44:27;;;;;;;14.93;8.45;;;10.20;99.90;;;;;;5054461;28;20047;-49
2022/04/25 09:46:53;;;;;;;21.80;9.32;;;10.10;99.90;;;;;;5054383;28;20457;-50
2022/04/25 09:49:20;;;;;;;17.02;9.15;;;10.30;99.90;;;;;;5050704;28;20056;-53
2022/04/25 09:51:59;;;;;;;14.40;8.75;;;10.40;99.90;;;;;;5054254;28;20052;-54
2022/04/25 09:54:25;;;;;;;17.13;9.05;;;10.70;99.90;;;;;;5054271;28;20084;-53
2022/04/25 09:56:51;;;;;;;15.15;8.45;;;10.90;99.90;;;;;;5036462;28;20061;-53
2022/04/25 09:59:18;;;;;;;13.18;8.25;;;11.10;99.90;;;;;;5055071;28;20033;-51
2022/04/25 10:01:45;;;;;;;17.58;8.77;;;11.20;99.90;;;;;;5053570;28;20031;-51
2022/04/25 10:04:34;;;;;;;16.73;8.02;;;11.40;99.90;;;;;;5053699;28;20021;-55
2022/04/25 10:07:05;;;;;;;17.63;8.82;;;11.50;99.90;;;;;;5050882;28;20029;-53
2022/04/25 10:09:32;;;;;;;13.48;8.55;;;11.50;99.90;;;;;;5054320;28;20371;-55
2022/04/25 10:12:00;;;;;;;15.15;9.10;;;11.50;99.90;;;;;;5035868;28;20532;-52
2022/04/25 10:14:27;;;;;;;14.50;8.25;;;11.50;99.90;;;;;;5036624;28;20327;-52
2022/04/25 10:16:56;;;;;;;22.70;9.73;;;11.50;99.90;;;;;;5053940;28;20402;-51
2022/04/25 10:19:23;;;;;;;15.65;9.57;;;11.40;99.90;;;;;;5051078;28;20098;-52
2022/04/25 10:21:51;;;;;;;15.23;9.43;;;11.30;99.90;;;;;;5052548;28;20032;-53
2022/04/25 10:24:19;;;;;;;17.90;9.55;;;11.30;99.90;;;;;;5053416;28;20017;-52
2022/04/25 10:26:47;;;;;;;15.85;9.02;;;11.40;99.90;;;;;;5053499;28;20025;-55
2022/04/25 10:29:18;;;;;;;15.18;8.55;;;11.60;99.90;;;;;;5053324;28;20029;-54
2022/04/25 10:31:47;;;;;;;16.83;9.38;;;11.80;99.90;;;;;;5051381;28;20021;-54
2022/04/25 10:34:14;;;;;;;12.90;8.77;;;12.00;99.90;;;;;;5053592;28;20108;-55
2022/04/25 10:36:39;;;;;;;13.52;8.38;;;12.20;99.90;;;;;;5035585;28;20056;-54
2022/04/25 10:39:20;;;;;;;17.02;9.10;;;12.30;99.90;;;;;;5053408;28;20490;-53
2022/04/25 10:44:42;;;;;;;13.23;8.75;;;12.50;99.90;;;;;;5050341;28;20039;-52
2022/04/25 10:47:13;;;;;;;13.50;8.25;;;12.60;99.90;;;;;;5056548;22;20021;-58
2022/04/25 10:49:52;;;;;;;12.45;8.98;;;12.60;99.90;;;;;;5048727;28;20074;-57
2022/04/25 10:52:42;;;;;;;15.95;8.13;;;12.60;99.90;;;;;;5042976;28;20051;-57
2022/04/25 10:55:19;;;;;;;16.60;8.98;;;12.60;99.90;;;;;;5051610;28;20432;-56
2022/04/25 10:58:03;;;;;;;14.98;8.68;;;12.70;99.90;;;;;;5054042;28;20037;-57
2022/04/25 11:00:41;;;;;;;13.02;8.85;;;12.90;99.90;;;;;;5054302;28;20029;-57
2022/04/25 11:03:10;;;;;;;13.98;8.32;;;13.10;99.90;;;;;;5054078;28;20079;-55
2022/04/25 11:05:41;;;;;;;13.35;9.52;;;13.10;99.90;;;;;;5054219;28;20064;-57
2022/04/25 11:08:19;;;;;;;13.68;8.70;;;13.30;99.90;;;;;;5035610;28;20025;-56
2022/04/25 11:10:48;;;;;;;14.55;8.70;;;13.30;99.90;;;;;;5053767;28;20103;-57
2022/04/25 11:13:18;;;;;;;15.02;8.65;;;13.50;99.90;;;;;;5052580;28;20371;-57
2022/04/25 11:15:48;;;;;;;13.43;9.07;;;13.50;99.90;;;;;;5025007;28;20058;-56
2022/04/25 11:18:33;;;;;;;14.45;8.73;;;13.50;99.90;;;;;;5013335;28;20051;-56
2022/04/25 11:21:07;;;;;;;12.98;9.00;;;13.70;99.90;;;;;;5014454;28;20537;-56
2022/04/25 11:23:34;;;;;;;15.90;9.15;;;13.80;99.90;;;;;;5014231;28;20491;-56
2022/04/25 11:26:01;;;;;;;12.45;8.77;;;13.90;99.90;;;;;;5014203;28;20026;-52
2022/04/25 11:28:27;;;;;;;12.82;8.25;;;14.00;99.90;;;;;;5012232;28;20063;-56
2022/04/25 11:31:15;;;;;;;11.73;8.43;;;14.10;99.90;;;;;;5012681;28;20360;-56
2022/04/25 11:33:42;;;;;;;14.68;8.73;;;14.20;99.90;;;;;;5022933;28;20034;-58
2022/04/25 11:36:08;;;;;;;15.30;8.70;;;14.30;99.90;;;;;;5024030;28;20017;-56
2022/04/25 11:41:30;;;;;;;16.13;8.30;;;14.40;99.90;;;;;;5030406;28;20067;-56
2022/04/25 11:43:57;;;;;;;13.75;8.88;;;14.50;99.90;;;;;;4996831;28;20037;-56
2022/04/25 11:46:24;;;;;;;13.32;8.55;;;14.60;99.90;;;;;;4996275;28;20030;-53
2022/04/25 11:48:50;;;;;;;11.98;8.95;;;14.60;99.90;;;;;;4996484;28;20467;-58
2022/04/25 11:51:43;;;;;;;15.45;8.77;;;14.60;99.90;;;;;;5013953;28;20117;-54
2022/04/25 11:54:10;;;;;;;12.70;8.38;;;14.80;99.90;;;;;;5023143;28;20041;-55
2022/04/25 11:56:41;;;;;;;16.92;8.23;;;14.80;99.90;;;;;;5012813;28;20068;-56
2022/04/25 11:59:11;;;;;;;14.75;7.78;;;14.80;99.90;;;;;;5002998;28;20034;-56
2022/04/25 12:01:48;;;;;;;13.82;8.43;;;14.80;99.90;;;;;;5033542;28;20068;-55
2022/04/25 12:04:21;;;;;;;14.35;9.25;;;14.80;99.90;;;;;;5033860;28;20493;-57
2022/04/25 12:06:59;;;;;;;13.05;7.35;;;14.90;99.90;;;;;;5015392;28;20040;-57
2022/04/25 12:15:38;;;;;;;12.75;8.18;;;15.90;99.90;;;;;;5032696;28;20412;-57
2022/04/25 12:18:14;;;;;;;12.60;8.15;;;16.10;99.90;;;;;;5026276;28;20037;-56
2022/04/25 12:20:40;;;;;;;12.73;7.90;;;16.40;99.90;;;;;;5024737;28;20033;-56
2022/04/25 12:23:06;;;;;;;13.23;7.75;;;16.50;99.90;;;;;;5011808;28;20088;-56
2022/04/25 12:25:38;;;;;;;9.02;7.80;;;16.60;99.90;;;;;;5022809;28;20487;-58
2022/04/25 12:28:13;;;;;;;14.13;7.57;;;16.90;99.90;;;;;;5031742;28;20025;-56
2022/04/25 12:30:54;;;;;;;12.90;8.63;;;17.00;99.90;;;;;;5030545;28;20438;-56
2022/04/25 12:33:21;;;;;;;;;;;17.10;99.90;;;;;;5017688;28;20104;-52
2022/04/25 12:35:48;;;;;;;12.40;7.85;;;17.20;99.90;;;;;;5017410;28;19905;-56
2022/04/25 12:38:43;;;;;;;14.30;8.27;;;17.30;99.90;;;;;;4999266;28;20033;-57
2022/04/25 12:41:19;;;;;;;11.25;7.47;;;17.50;99.90;;;;;;5042082;28;20116;-57
2022/04/25 12:43:46;;;;;;;13.45;7.53;;;17.60;99.90;;;;;;5028167;28;20040;-56
2022/04/25 12:46:14;;;;;;;13.55;7.65;;;17.70;99.90;;;;;;5042945;28;20044;-59
2022/04/25 12:48:59;;;;;;;15.55;8.13;;;17.60;99.90;;;;;;5026674;28;20036;-58
2022/04/25 12:51:34;;;;;;;11.15;7.45;;;17.40;99.90;;;;;;5045656;28;20021;-56
2022/04/25 12:54:00;;;;;;;15.63;8.48;;;17.10;99.90;;;;;;5046008;28;20021;-57
2022/04/25 12:56:29;;;;;;;14.70;8.15;;;16.90;99.90;;;;;;5044244;28;20029;-59
2022/04/25 12:58:55;;;;;;;15.48;8.15;;;16.80;99.90;;;;;;5045869;28;20040;-55
2022/04/25 13:01:31;;;;;;;14.38;8.27;;;16.60;99.90;;;;;;5027838;28;20049;-57
2022/04/25 13:04:13;;;;;;;15.68;7.63;;;16.30;99.90;;;;;;5043598;28;20021;-57
2022/04/25 13:06:41;;;;;;;;;;;16.20;99.90;;;;;;5044294;28;20477;-58
2022/04/25 13:09:08;;;;;;;10.57;7.18;;;16.10;99.90;;;;;;5044039;28;20373;-56
2022/04/25 13:11:34;;;;;;;13.30;8.02;;;16.00;99.90;;;;;;5027693;28;20021;-58
2022/04/25 13:14:00;;;;;;;14.18;6.95;;;16.10;99.90;;;;;;5036806;28;20490;-58
2022/04/25 13:16:26;;;;;;;13.60;7.72;;;16.20;99.90;;;;;;5044710;28;20386;-56
2022/04/25 13:18:52;;;;;;;14.48;7.85;;;16.30;99.90;;;;;;5043961;28;20099;-58